Time;durP1;ratioP1;P1;durP2;ratioP2;P2;SDS_P1;SDS_P2;PMS_P1;PMS_P2;Temp;Humidity;BMP_temperature;BMP_pressure;BME280_temperature;BME280_humidity;BME280_pressure;Samples;Min_cycle;Max_cycle;Signal;HPM_P1;HPM_P2
2023/01/13 00:00:49;;;;;;;361.05;249.00;;;3.80;99.90;;;;;;4880132;29;20485;-70
2023/01/13 00:03:14;;;;;;;354.33;247.90;;;3.80;99.90;;;;;;4879645;29;20052;-71
2023/01/13 00:05:40;;;;;;;363.48;247.88;;;3.90;99.90;;;;;;4879694;29;20496;-71
2023/01/13 00:08:06;;;;;;;379.58;247.55;;;3.90;99.90;;;;;;4880084;29;20044;-72
2023/01/13 00:10:33;;;;;;;352.08;242.52;;;3.90;99.90;;;;;;4879850;29;20051;-72
2023/01/13 00:13:00;;;;;;;368.20;239.85;;;3.90;99.90;;;;;;4880082;29;20113;-70
2023/01/13 00:15:25;;;;;;;332.90;235.02;;;3.80;99.90;;;;;;4879889;29;20029;-72
2023/01/13 00:17:51;;;;;;;360.80;242.10;;;3.70;99.90;;;;;;4879228;29;20362;-72
2023/01/13 00:20:17;;;;;;;383.90;260.23;;;3.60;99.90;;;;;;4879519;29;20029;-72
2023/01/13 00:22:43;;;;;;;379.83;261.13;;;3.60;99.90;;;;;;4879490;29;20504;-71
2023/01/13 00:25:09;;;;;;;355.40;246.38;;;3.60;99.90;;;;;;4880095;29;20021;-71
2023/01/13 00:27:35;;;;;;;362.23;245.32;;;3.50;99.90;;;;;;4878536;29;20135;-72
2023/01/13 00:30:01;;;;;;;346.55;247.73;;;3.50;99.90;;;;;;4879657;29;20073;-72
2023/01/13 00:32:28;;;;;;;377.17;255.20;;;3.40;99.90;;;;;;4875681;29;20037;-71
2023/01/13 00:34:53;;;;;;;305.75;216.57;;;3.30;99.90;;;;;;4879341;29;20036;-72
2023/01/13 00:37:19;;;;;;;369.60;252.30;;;3.30;99.90;;;;;;4879782;29;20025;-72
2023/01/13 00:39:45;;;;;;;352.17;248.82;;;3.20;99.90;;;;;;4879300;29;20120;-71
2023/01/13 00:44:55;;;;;;;333.88;230.18;;;3.10;99.90;;;;;;4879554;29;20033;-71
2023/01/13 00:47:22;;;;;;;325.02;221.68;;;3.10;99.90;;;;;;4879447;29;20102;-70
2023/01/13 00:49:49;;;;;;;313.25;215.02;;;3.10;99.90;;;;;;4879529;29;20104;-71
2023/01/13 00:52:15;;;;;;;305.00;210.43;;;3.10;99.90;;;;;;4879336;29;20069;-72
2023/01/13 00:54:40;;;;;;;290.70;203.10;;;3.00;99.90;;;;;;4879655;29;20021;-71
2023/01/13 00:57:06;;;;;;;277.83;197.15;;;3.00;99.90;;;;;;4879151;29;20047;-70
2023/01/13 00:59:32;;;;;;;288.98;203.43;;;3.00;99.90;;;;;;4879293;29;20037;-71
2023/01/13 01:01:59;;;;;;;288.98;189.98;;;3.00;99.90;;;;;;4879432;29;20374;-71
2023/01/13 01:04:24;;;;;;;286.38;188.82;;;3.00;99.90;;;;;;4879806;29;20098;-71
2023/01/13 01:06:50;;;;;;;252.55;167.70;;;3.00;99.90;;;;;;4879793;29;20473;-71
2023/01/13 01:09:17;;;;;;;242.57;158.10;;;3.00;99.90;;;;;;4879756;29;20029;-72
2023/01/13 01:11:43;;;;;;;221.90;146.88;;;2.90;99.90;;;;;;4879422;29;20021;-72
2023/01/13 01:14:11;;;;;;;206.32;136.82;;;2.90;99.90;;;;;;4879751;29;20132;-72
2023/01/13 01:16:39;;;;;;;194.48;130.02;;;2.90;99.90;;;;;;4879322;29;20021;-72
2023/01/13 01:19:05;;;;;;;205.95;140.70;;;2.90;99.90;;;;;;4878041;29;20048;-71
2023/01/13 01:21:32;;;;;;;202.65;141.57;;;2.90;99.90;;;;;;4879518;29;20068;-72
2023/01/13 01:24:01;;;;;;;195.00;126.55;;;2.80;99.90;;;;;;4879793;29;20450;-72
2023/01/13 01:26:29;;;;;;;203.35;138.10;;;2.80;99.90;;;;;;4880549;29;20051;-72
2023/01/13 01:28:55;;;;;;;197.15;132.45;;;2.80;99.90;;;;;;4898496;29;20500;-73
2023/01/13 01:31:26;;;;;;;185.90;121.20;;;2.70;99.90;;;;;;4898377;29;20036;-72
2023/01/13 01:33:53;;;;;;;180.35;118.90;;;2.60;99.90;;;;;;4898023;29;20036;-72
2023/01/13 01:36:20;;;;;;;174.77;112.80;;;2.60;99.90;;;;;;4898254;29;20540;-71
2023/01/13 01:38:47;;;;;;;174.40;114.03;;;2.60;99.90;;;;;;4898119;29;20029;-71
2023/01/13 01:41:19;;;;;;;162.32;114.22;;;2.60;99.90;;;;;;4898007;29;20037;-72
2023/01/13 01:44:03;;;;;;;166.35;111.10;;;2.70;99.90;;;;;;4898061;29;20043;-72
2023/01/13 01:46:37;;;;;;;149.45;103.03;;;2.70;99.90;;;;;;4897826;29;20029;-72
2023/01/13 01:49:16;;;;;;;136.10;97.15;;;2.60;99.90;;;;;;4898008;29;20036;-71
2023/01/13 01:51:54;;;;;;;139.13;95.45;;;2.60;99.90;;;;;;4897718;29;20065;-71
2023/01/13 01:54:53;;;;;;;142.00;94.93;;;2.60;99.90;;;;;;4897988;29;20032;-72
2023/01/13 01:57:34;;;;;;;127.50;87.97;;;2.60;99.90;;;;;;4858450;29;20033;-72
2023/01/13 02:00:00;;;;;;;126.28;86.88;;;2.60;99.90;;;;;;4858734;29;20041;-73
2023/01/13 02:02:29;;;;;;;116.13;75.25;;;2.60;99.90;;;;;;4858339;29;20124;-72
2023/01/13 02:04:56;;;;;;;117.78;76.07;;;2.50;99.90;;;;;;4858665;29;20130;-71
2023/01/13 02:07:28;;;;;;;103.13;69.03;;;2.60;99.90;;;;;;4858445;29;20038;-71
2023/01/13 02:09:56;;;;;;;100.22;65.07;;;2.60;99.90;;;;;;4858629;29;20103;-71
2023/01/13 02:12:29;;;;;;;90.50;64.30;;;2.60;99.90;;;;;;4858088;29;20034;-71
2023/01/13 02:15:00;;;;;;;86.95;62.45;;;2.60;99.90;;;;;;4858547;29;20099;-72
2023/01/13 02:17:38;;;;;;;92.35;61.20;;;2.60;99.90;;;;;;4858261;29;20033;-72
2023/01/13 02:20:09;;;;;;;91.82;63.03;;;2.60;99.90;;;;;;4858478;29;20037;-71
2023/01/13 02:22:58;;;;;;;92.43;64.35;;;2.60;99.90;;;;;;4858487;29;20045;-72
2023/01/13 02:25:56;;;;;;;95.00;64.50;;;2.50;99.90;;;;;;4858565;29;20436;-71
2023/01/13 02:31:40;;;;;;;102.32;69.38;;;2.50;99.90;;;;;;4858014;29;20057;-72
2023/01/13 02:31:43;;;;;;;90.90;63.17;;;2.50;99.90;;;;;;4859079;29;20461;-72
2023/01/13 02:34:35;;;;;;;90.43;62.25;;;2.40;99.90;;;;;;4881548;29;20446;-72
2023/01/13 02:37:11;;;;;;;99.70;66.20;;;2.40;99.90;;;;;;4901399;29;20032;-72
2023/01/13 02:39:53;;;;;;;92.18;63.78;;;2.30;99.90;;;;;;4900264;29;20036;-72
2023/01/13 02:45:23;;;;;;;93.75;64.75;;;2.20;99.90;;;;;;4890360;29;20028;-71
2023/01/13 02:47:51;;;;;;;93.78;62.42;;;2.20;99.90;;;;;;4900384;29;20092;-71
2023/01/13 02:50:21;;;;;;;91.75;63.00;;;2.20;99.90;;;;;;4900207;29;20441;-72
2023/01/13 02:53:02;;;;;;;94.88;66.05;;;2.20;99.90;;;;;;4900631;29;20031;-71
2023/01/13 02:55:43;;;;;;;111.57;77.38;;;2.20;99.90;;;;;;4900613;29;20104;-71
2023/01/13 02:58:13;;;;;;;146.98;101.28;;;2.20;99.90;;;;;;4900616;29;20094;-72
2023/01/13 03:00:40;;;;;;;126.55;89.80;;;2.20;99.90;;;;;;4900166;29;20075;-71
2023/01/13 03:03:06;;;;;;;142.68;93.30;;;2.20;99.90;;;;;;4900496;29;20031;-72
2023/01/13 03:05:32;;;;;;;144.70;92.70;;;2.20;99.90;;;;;;4900089;29;20028;-70
2023/01/13 03:08:41;;;;;;;120.45;80.75;;;2.30;99.90;;;;;;4900194;29;20037;-73
2023/01/13 03:11:13;;;;;;;135.80;92.10;;;2.20;99.90;;;;;;4888071;29;20060;-73
2023/01/13 03:13:54;;;;;;;126.40;85.45;;;2.30;99.90;;;;;;4888091;29;20359;-72
2023/01/13 03:16:55;;;;;;;129.80;84.55;;;2.20;99.90;;;;;;4900678;29;20017;-73
2023/01/13 03:19:37;;;;;;;169.30;112.32;;;2.30;99.90;;;;;;4879869;29;20478;-71
2023/01/13 03:22:10;;;;;;;154.68;108.03;;;2.20;99.90;;;;;;4879674;29;20045;-71
2023/01/13 03:24:42;;;;;;;145.57;104.60;;;2.00;99.90;;;;;;4875147;29;20037;-71
2023/01/13 03:27:33;;;;;;;148.20;98.72;;;2.00;99.90;;;;;;4878231;29;20509;-70
2023/01/13 03:30:04;;;;;;;145.43;91.30;;;2.00;99.90;;;;;;4860940;29;20105;-71
2023/01/13 03:32:35;;;;;;;124.03;82.72;;;2.10;99.90;;;;;;4861043;29;20042;-70
2023/01/13 03:35:07;;;;;;;107.82;73.93;;;2.10;99.90;;;;;;4860598;29;20038;-71
2023/01/13 03:37:38;;;;;;;86.30;58.05;;;2.20;99.90;;;;;;4861125;29;20046;-71
2023/01/13 03:40:31;;;;;;;82.05;56.28;;;2.20;99.90;;;;;;4860694;29;20029;-72
2023/01/13 03:45:54;;;;;;;70.47;48.33;;;2.30;99.90;;;;;;4860983;29;20070;-71
2023/01/13 03:48:22;;;;;;;61.92;40.17;;;2.20;99.90;;;;;;4860285;29;20415;-72
2023/01/13 03:50:51;;;;;;;65.70;41.47;;;2.20;99.90;;;;;;4860802;29;20029;-73
2023/01/13 03:53:34;;;;;;;67.57;44.28;;;2.20;99.90;;;;;;4860700;29;20397;-71
2023/01/13 03:56:10;;;;;;;65.85;45.00;;;2.20;99.90;;;;;;4877430;29;20516;-73
2023/01/13 03:58:43;;;;;;;73.35;44.80;;;2.20;99.90;;;;;;4878538;29;20045;-74
2023/01/13 04:01:23;;;;;;;85.57;54.53;;;2.10;99.90;;;;;;4878316;29;20072;-73
2023/01/13 04:04:06;;;;;;;97.63;59.08;;;2.10;99.90;;;;;;4878020;29;20511;-72
2023/01/13 04:06:39;;;;;;;89.97;52.63;;;2.00;99.90;;;;;;4885328;29;20489;-72
2023/01/13 04:09:17;;;;;;;79.32;49.13;;;2.00;99.90;;;;;;4899267;29;20430;-71
2023/01/13 04:11:50;;;;;;;92.85;60.63;;;2.00;99.90;;;;;;4899741;29;20035;-71
2023/01/13 04:14:18;;;;;;;;;;;1.90;99.90;;;;;;4899829;29;20035;-72
2023/01/13 04:16:44;;;;;;;61.92;40.40;;;1.80;99.90;;;;;;4898730;29;20279;-72
2023/01/13 04:19:10;;;;;;;60.33;38.40;;;1.80;99.90;;;;;;4899071;29;20025;-72
2023/01/13 04:21:36;;;;;;;55.42;35.90;;;1.60;99.90;;;;;;4899326;29;20540;-74
2023/01/13 04:24:02;;;;;;;55.53;36.28;;;1.50;99.90;;;;;;4899422;29;20115;-74
2023/01/13 04:26:27;;;;;;;54.47;35.45;;;1.50;99.90;;;;;;4899178;29;20467;-71
2023/01/13 04:28:54;;;;;;;59.13;37.83;;;1.60;99.90;;;;;;4898987;29;20040;-73
2023/01/13 04:31:20;;;;;;;53.13;33.50;;;1.50;99.90;;;;;;4899190;29;20500;-74
2023/01/13 04:33:46;;;;;;;61.58;39.58;;;1.50;99.90;;;;;;4898842;29;20040;-72
2023/01/13 04:36:12;;;;;;;59.92;37.13;;;1.50;99.90;;;;;;4899294;29;20028;-72
2023/01/13 04:38:37;;;;;;;59.95;36.95;;;1.60;99.90;;;;;;4898333;29;20047;-73
2023/01/13 04:41:03;;;;;;;66.70;36.05;;;1.70;99.90;;;;;;4898855;29;20024;-74
2023/01/13 04:43:29;;;;;;;55.10;34.78;;;1.80;99.90;;;;;;4898651;29;20032;-72
2023/01/13 04:45:55;;;;;;;61.55;35.58;;;1.80;99.90;;;;;;4898706;29;20029;-73
2023/01/13 04:48:21;;;;;;;63.97;36.30;;;1.90;99.90;;;;;;4898324;29;20115;-74
2023/01/13 04:50:48;;;;;;;64.60;35.63;;;1.90;99.90;;;;;;4898575;29;20049;-74
2023/01/13 04:53:14;;;;;;;67.00;35.78;;;2.00;99.90;;;;;;4898187;29;20028;-74
2023/01/13 04:55:39;;;;;;;57.42;32.00;;;2.00;99.90;;;;;;4897709;29;20434;-74
2023/01/13 04:58:08;;;;;;;51.72;34.10;;;2.00;99.90;;;;;;4898134;29;20545;-74
2023/01/13 05:00:35;;;;;;;56.28;34.38;;;2.10;99.90;;;;;;4897805;29;20032;-74
2023/01/13 05:03:01;;;;;;;60.88;35.72;;;2.10;99.90;;;;;;4898436;29;20041;-72
2023/01/13 05:05:28;;;;;;;54.03;33.20;;;2.20;99.90;;;;;;4897967;29;20449;-71
2023/01/13 05:07:54;;;;;;;67.40;38.75;;;2.30;99.90;;;;;;4895738;29;20083;-72
2023/01/13 05:10:20;;;;;;;97.47;52.50;;;2.30;99.90;;;;;;4897720;29;20025;-72
2023/01/13 05:18:16;;;;;;;93.53;48.60;;;2.50;99.90;;;;;;4897740;29;20040;-72
2023/01/13 05:20:42;;;;;;;75.72;43.92;;;2.50;99.90;;;;;;4898248;29;20036;-72
2023/01/13 05:25:52;;;;;;;76.03;48.35;;;2.60;99.90;;;;;;4898107;29;20115;-72
2023/01/13 05:28:18;;;;;;;83.32;46.22;;;2.60;99.90;;;;;;4897167;29;20166;-72
2023/01/13 05:30:46;;;;;;;74.88;44.03;;;2.60;99.90;;;;;;4898127;29;20471;-73
2023/01/13 05:33:14;;;;;;;88.47;47.65;;;2.70;99.90;;;;;;4897501;29;20067;-72
2023/01/13 05:35:42;;;;;;;104.13;53.30;;;2.80;99.90;;;;;;4897548;29;20068;-72
2023/01/13 05:38:09;;;;;;;64.50;39.03;;;2.80;99.90;;;;;;4897117;29;20070;-73
2023/01/13 05:43:25;;;;;;;68.65;37.20;;;2.80;99.90;;;;;;4897546;29;20037;-73
2023/01/13 05:46:06;;;;;;;102.10;60.20;;;2.70;99.90;;;;;;4897626;29;20032;-73
2023/01/13 05:48:40;;;;;;;102.80;62.22;;;2.70;99.90;;;;;;4897799;29;20040;-73
2023/01/13 05:51:08;;;;;;;77.18;45.53;;;2.60;99.90;;;;;;4897468;29;20051;-73
2023/01/13 05:53:34;;;;;;;76.47;43.88;;;2.60;99.90;;;;;;4896875;29;20040;-73
2023/01/13 05:56:04;;;;;;;72.25;42.92;;;2.70;99.90;;;;;;4897559;29;20036;-73
2023/01/13 05:58:30;;;;;;;65.75;43.78;;;2.80;99.90;;;;;;4897766;29;20036;-73
2023/01/13 06:01:01;;;;;;;82.63;45.28;;;2.80;99.90;;;;;;4897482;29;20041;-73
2023/01/13 06:03:27;;;;;;;65.97;38.83;;;2.90;99.90;;;;;;4897364;29;20036;-73
2023/01/13 06:05:57;;;;;;;63.33;38.15;;;2.90;99.90;;;;;;4898003;29;20107;-73
2023/01/13 06:08:24;;;;;;;65.30;38.53;;;3.00;99.90;;;;;;4902295;29;20075;-73
2023/01/13 06:10:49;;;;;;;64.18;37.83;;;3.00;99.90;;;;;;4901500;29;20429;-73
2023/01/13 06:13:15;;;;;;;72.40;44.95;;;3.10;99.90;;;;;;4901796;29;20111;-73
2023/01/13 06:15:41;;;;;;;54.03;35.40;;;3.20;99.90;;;;;;4901526;29;20029;-73
2023/01/13 06:18:07;;;;;;;90.32;50.53;;;3.20;99.90;;;;;;4901082;29;20444;-73
2023/01/13 06:20:33;;;;;;;72.90;44.80;;;3.30;99.90;;;;;;4901252;29;20020;-73
2023/01/13 06:22:59;;;;;;;68.97;43.20;;;3.30;99.90;;;;;;4900283;29;20340;-74
2023/01/13 06:25:43;;;;;;;68.95;40.22;;;3.20;99.90;;;;;;4901405;29;20115;-73
2023/01/13 06:28:09;;;;;;;57.80;39.67;;;3.10;99.90;;;;;;4900954;29;20513;-73
2023/01/13 06:30:43;;;;;;;62.33;38.38;;;3.10;99.90;;;;;;4901531;29;20511;-73
2023/01/13 06:33:13;;;;;;;60.85;36.97;;;3.00;99.90;;;;;;4901038;29;20033;-73
2023/01/13 06:35:42;;;;;;;55.45;37.38;;;3.10;99.90;;;;;;4901264;29;20036;-74
2023/01/13 06:38:11;;;;;;;61.03;42.17;;;3.20;99.90;;;;;;4900518;29;20429;-72
2023/01/13 06:40:39;;;;;;;68.78;44.38;;;3.20;99.90;;;;;;4901209;29;20033;-73
2023/01/13 06:43:14;;;;;;;65.88;41.28;;;3.20;99.90;;;;;;4900855;29;20028;-72
2023/01/13 06:45:51;;;;;;;59.70;39.40;;;3.30;99.90;;;;;;4900970;29;20036;-72
2023/01/13 06:48:22;;;;;;;100.63;63.70;;;3.30;99.90;;;;;;4900076;29;20051;-74
2023/01/13 06:50:47;;;;;;;88.70;60.35;;;3.30;99.90;;;;;;4901063;29;20469;-73
2023/01/13 06:53:13;;;;;;;95.55;64.15;;;3.20;99.90;;;;;;4901144;29;20028;-74
2023/01/13 06:55:40;;;;;;;106.18;61.42;;;3.20;99.90;;;;;;4900738;29;20056;-74
2023/01/13 06:58:06;;;;;;;93.15;60.80;;;3.20;99.90;;;;;;4900800;29;20059;-74
2023/01/13 07:00:36;;;;;;;90.93;53.30;;;3.20;99.90;;;;;;4900621;29;20039;-72
2023/01/13 07:03:13;;;;;;;63.33;39.22;;;3.20;99.90;;;;;;4900806;29;20028;-72
2023/01/13 07:05:40;;;;;;;69.85;42.20;;;3.20;99.90;;;;;;4900783;29;20541;-72
2023/01/13 07:08:07;;;;;;;78.57;46.38;;;3.30;99.90;;;;;;4900675;29;20048;-74
2023/01/13 07:10:33;;;;;;;82.07;49.80;;;3.30;99.90;;;;;;4900717;29;20029;-73
2023/01/13 07:16:01;;;;;;;76.20;44.97;;;3.40;99.90;;;;;;4900184;29;20073;-73
2023/01/13 07:18:30;;;;;;;96.63;45.65;;;3.50;99.90;;;;;;4898991;29;20033;-73
2023/01/13 07:21:09;;;;;;;92.15;50.22;;;3.60;99.90;;;;;;4900245;29;20032;-73
2023/01/13 07:23:39;;;;;;;74.38;44.03;;;3.60;99.90;;;;;;4900260;29;20084;-72
2023/01/13 07:26:07;;;;;;;73.13;45.92;;;3.60;99.90;;;;;;4899305;29;20029;-72
2023/01/13 07:28:33;;;;;;;71.20;43.13;;;3.70;99.90;;;;;;4899837;29;20063;-72
2023/01/13 07:30:59;;;;;;;70.78;42.45;;;3.80;99.90;;;;;;4900075;29;20036;-74
2023/01/13 07:33:25;;;;;;;73.20;45.50;;;3.90;99.90;;;;;;4899735;29;20072;-72
2023/01/13 07:35:59;;;;;;;77.97;44.65;;;3.90;99.90;;;;;;4899907;29;20485;-72
2023/01/13 07:38:25;;;;;;;75.28;44.88;;;4.00;99.90;;;;;;4900077;29;20433;-72
2023/01/13 07:40:51;;;;;;;88.25;49.25;;;4.20;99.90;;;;;;4899925;29;20031;-73
2023/01/13 07:43:32;;;;;;;76.63;44.15;;;4.40;99.90;;;;;;4899958;29;20109;-72
2023/01/13 07:46:03;;;;;;;71.30;43.55;;;4.50;99.90;;;;;;4899939;29;20123;-72
2023/01/13 07:48:31;;;;;;;73.60;43.80;;;4.50;99.90;;;;;;4898962;29;20076;-74
2023/01/13 07:51:01;;;;;;;66.45;41.78;;;4.70;99.90;;;;;;4899255;29;20021;-73
2023/01/13 07:53:27;;;;;;;62.60;39.00;;;4.70;99.90;;;;;;4899443;29;20043;-72
2023/01/13 07:55:57;;;;;;;65.72;42.28;;;4.70;99.90;;;;;;4899657;29;20036;-72
2023/01/13 07:58:24;;;;;;;72.57;46.13;;;4.80;99.90;;;;;;4899391;29;20422;-74
2023/01/13 08:00:51;;;;;;;70.65;44.83;;;4.80;99.90;;;;;;4899606;29;20037;-72
2023/01/13 08:03:17;;;;;;;71.55;45.25;;;4.90;99.90;;;;;;4899384;29;20017;-72
2023/01/13 08:05:44;;;;;;;64.43;40.13;;;4.90;99.90;;;;;;4899396;29;20405;-73
2023/01/13 08:08:10;;;;;;;57.58;37.42;;;4.90;99.90;;;;;;4899164;29;20179;-74
2023/01/13 08:10:36;;;;;;;59.10;39.10;;;5.00;99.90;;;;;;4899569;29;20443;-74
2023/01/13 08:13:21;;;;;;;67.00;40.33;;;5.00;99.90;;;;;;4898377;29;20048;-72
2023/01/13 08:15:50;;;;;;;56.15;38.35;;;5.10;99.90;;;;;;4899491;29;20025;-73
2023/01/13 08:18:19;;;;;;;58.53;40.10;;;5.20;99.90;;;;;;4899261;29;20024;-72
2023/01/13 08:20:45;;;;;;;66.97;43.47;;;5.30;99.90;;;;;;4899278;29;20043;-72
2023/01/13 08:23:11;;;;;;;69.50;44.58;;;5.50;99.90;;;;;;4899239;29;20090;-72
2023/01/13 08:25:37;;;;;;;65.38;42.47;;;5.70;99.90;;;;;;4899314;29;20033;-74
2023/01/13 08:28:03;;;;;;;58.85;39.38;;;5.80;99.90;;;;;;4898594;29;20040;-73
2023/01/13 08:30:29;;;;;;;54.72;38.08;;;5.90;99.90;;;;;;4899209;29;20041;-72
2023/01/13 08:32:55;;;;;;;66.80;40.72;;;6.00;99.90;;;;;;4898951;29;20104;-73
2023/01/13 08:35:21;;;;;;;53.88;36.63;;;6.10;99.90;;;;;;4898737;29;20107;-73
2023/01/13 08:37:48;;;;;;;54.65;34.97;;;6.20;99.90;;;;;;4898870;29;20075;-73
2023/01/13 08:40:17;;;;;;;56.42;35.72;;;6.20;99.90;;;;;;4898616;29;20441;-73
2023/01/13 08:42:43;;;;;;;57.15;38.83;;;6.30;99.90;;;;;;4898689;29;20029;-74
2023/01/13 08:45:10;;;;;;;52.58;35.28;;;6.40;99.90;;;;;;4898820;29;20366;-74
2023/01/13 08:47:36;;;;;;;53.85;36.28;;;6.50;99.90;;;;;;4898624;29;20095;-73
2023/01/13 08:50:02;;;;;;;52.42;35.80;;;6.60;99.90;;;;;;4898280;29;20024;-72
2023/01/13 08:52:29;;;;;;;54.42;32.97;;;6.80;99.90;;;;;;4896705;29;20040;-73
2023/01/13 08:54:55;;;;;;;51.22;33.42;;;6.90;99.90;;;;;;4897812;29;20029;-72
2023/01/13 08:57:21;;;;;;;48.50;31.77;;;7.00;99.90;;;;;;4898518;29;20057;-73
2023/01/13 08:59:47;;;;;;;48.42;31.38;;;7.10;99.90;;;;;;4898105;29;20025;-73
2023/01/13 09:02:15;;;;;;;44.28;30.55;;;7.10;99.90;;;;;;4898882;29;20107;-74
2023/01/13 09:04:42;;;;;;;40.50;27.52;;;7.20;99.90;;;;;;4898229;29;20111;-72
2023/01/13 09:07:08;;;;;;;39.90;25.55;;;7.30;99.90;;;;;;4898470;29;20028;-72
2023/01/13 09:09:34;;;;;;;41.13;26.10;;;7.40;99.90;;;;;;4898711;29;20096;-73
2023/01/13 09:14:45;;;;;;;36.65;23.48;;;7.50;99.90;;;;;;4897949;29;20029;-72
2023/01/13 09:17:11;;;;;;;38.85;26.17;;;7.60;99.90;;;;;;4898456;29;20032;-73
2023/01/13 09:19:36;;;;;;;43.85;27.63;;;7.70;99.90;;;;;;4898184;29;20039;-72
2023/01/13 09:22:03;;;;;;;46.25;30.60;;;7.60;99.90;;;;;;4898280;29;20025;-73
2023/01/13 09:24:29;;;;;;;38.33;26.88;;;7.50;99.90;;;;;;4897752;29;20076;-73
2023/01/13 09:26:55;;;;;;;35.10;20.40;;;7.70;99.90;;;;;;4893121;29;20053;-73
2023/01/13 09:29:21;;;;;;;29.63;19.95;;;7.80;99.90;;;;;;4879735;29;20391;-74
2023/01/13 09:31:47;;;;;;;30.95;18.25;;;7.90;99.90;;;;;;4879422;29;20033;-73
2023/01/13 09:37:01;;;;;;;27.95;17.55;;;8.10;99.90;;;;;;4878801;29;20044;-73
2023/01/13 09:39:26;;;;;;;27.85;16.85;;;8.10;99.90;;;;;;4879708;29;20036;-72
2023/01/13 09:44:56;;;;;;;30.27;19.38;;;8.30;99.90;;;;;;4879198;29;20112;-72
2023/01/13 09:47:44;;;;;;;28.88;17.58;;;8.30;99.90;;;;;;4878924;29;20041;-73
2023/01/13 09:50:13;;;;;;;25.05;16.23;;;8.30;99.90;;;;;;4879224;29;20025;-74
2023/01/13 09:52:41;;;;;;;22.55;15.10;;;8.40;99.90;;;;;;4879130;29;20036;-73
2023/01/13 09:55:16;;;;;;;22.23;14.00;;;8.20;99.90;;;;;;4879264;29;20029;-73
2023/01/13 09:57:42;;;;;;;27.95;17.58;;;8.40;99.90;;;;;;4879363;29;20040;-74
2023/01/13 10:00:23;;;;;;;27.52;17.20;;;8.30;99.90;;;;;;4878748;29;20116;-74
2023/01/13 10:03:18;;;;;;;29.10;18.23;;;8.40;99.90;;;;;;4879173;29;20033;-73
2023/01/13 10:05:56;;;;;;;23.33;14.07;;;8.20;99.90;;;;;;4878900;29;20056;-73
2023/01/13 10:08:26;;;;;;;30.42;19.42;;;8.10;99.90;;;;;;4879327;29;20049;-73
2023/01/13 10:13:12;;;;;;;23.08;13.52;;;8.30;99.90;;;;;;4878531;29;20465;-73
2023/01/13 10:13:54;;;;;;;22.67;15.52;;;8.30;99.90;;;;;;4879091;29;20035;-72
2023/01/13 10:16:30;;;;;;;23.73;13.90;;;8.10;99.90;;;;;;4879069;29;20033;-73
2023/01/13 10:19:19;;;;;;;26.02;13.18;;;8.20;99.90;;;;;;4878901;29;20053;-73
2023/01/13 10:22:01;;;;;;;27.25;15.27;;;8.30;99.90;;;;;;4879133;29;20037;-72
2023/01/13 10:24:59;;;;;;;26.20;15.65;;;8.40;99.90;;;;;;4878913;29;20025;-73
2023/01/13 10:27:36;;;;;;;31.70;19.20;;;8.60;99.90;;;;;;4880281;29;20053;-72
2023/01/13 10:30:19;;;;;;;37.00;19.15;;;8.80;99.90;;;;;;4897184;29;20032;-73
2023/01/13 10:33:19;;;;;;;31.10;19.52;;;8.80;99.90;;;;;;4897610;29;20033;-72
2023/01/13 10:36:01;;;;;;;24.88;13.98;;;8.70;99.90;;;;;;4878508;29;20488;-73
2023/01/13 10:38:38;;;;;;;44.15;28.55;;;8.60;99.90;;;;;;4879497;29;20089;-73
2023/01/13 10:41:18;;;;;;;37.10;24.95;;;8.60;99.90;;;;;;4876844;29;20370;-72
2023/01/13 10:43:50;;;;;;;30.33;20.20;;;8.60;99.90;;;;;;4877061;29;20052;-73
2023/01/13 10:46:16;;;;;;;25.25;14.38;;;8.60;99.90;;;;;;4883117;29;20485;-72
2023/01/13 10:48:50;;;;;;;34.30;17.45;;;8.60;99.90;;;;;;4874587;29;20076;-74
2023/01/13 10:51:23;;;;;;;31.95;19.30;;;8.70;99.90;;;;;;4876716;29;20033;-72
2023/01/13 10:53:51;;;;;;;43.40;24.10;;;8.90;99.90;;;;;;4879313;29;20081;-73
2023/01/13 10:56:18;;;;;;;21.88;12.95;;;9.00;99.90;;;;;;4881613;29;20112;-73
2023/01/13 10:58:45;;;;;;;23.60;13.60;;;8.80;99.90;;;;;;4880944;29;20124;-73
2023/01/13 11:01:25;;;;;;;22.30;14.27;;;9.00;99.90;;;;;;4878980;29;20044;-74
2023/01/13 11:03:53;;;;;;;20.58;12.75;;;8.90;99.90;;;;;;4879521;29;20508;-73
2023/01/13 11:06:23;;;;;;;26.60;16.13;;;9.00;99.90;;;;;;4878251;29;20040;-73
2023/01/13 11:08:51;;;;;;;25.50;16.73;;;9.10;99.90;;;;;;4878844;29;20342;-74
2023/01/13 11:11:40;;;;;;;23.25;12.68;;;9.00;99.90;;;;;;4888487;29;20040;-74
2023/01/13 11:17:18;;;;;;;29.25;18.17;;;9.20;99.90;;;;;;4900226;29;20088;-73
2023/01/13 11:19:57;;;;;;;29.67;16.05;;;9.30;99.90;;;;;;4897307;29;20028;-74
2023/01/13 11:22:36;;;;;;;37.22;25.13;;;9.30;99.90;;;;;;4900460;29;20036;-72
2023/01/13 11:25:08;;;;;;;41.85;26.08;;;9.50;99.90;;;;;;4900543;29;20028;-73
2023/01/13 11:27:42;;;;;;;31.50;19.15;;;9.50;99.90;;;;;;4899524;29;20139;-73
2023/01/13 11:30:23;;;;;;;35.60;21.58;;;9.40;99.90;;;;;;4902953;29;20035;-75
2023/01/13 11:32:59;;;;;;;32.97;21.65;;;9.50;99.90;;;;;;4900374;29;20040;-73
2023/01/13 11:35:25;;;;;;;26.52;18.40;;;9.50;99.90;;;;;;4899987;29;20029;-74
2023/01/13 11:37:58;;;;;;;32.58;18.65;;;9.50;99.90;;;;;;4899142;29;20031;-73
2023/01/13 11:40:39;;;;;;;37.35;21.83;;;9.50;99.90;;;;;;4895930;29;20040;-72
2023/01/13 11:43:31;;;;;;;34.47;20.67;;;9.60;99.90;;;;;;4899977;29;20095;-73
2023/01/13 11:45:58;;;;;;;26.40;15.52;;;9.60;99.90;;;;;;4879470;29;20045;-73
2023/01/13 11:48:28;;;;;;;23.77;14.90;;;9.60;99.90;;;;;;4882667;29;20057;-73
2023/01/13 11:51:09;;;;;;;28.83;16.77;;;9.70;99.90;;;;;;4879130;29;20042;-73
2023/01/13 11:53:59;;;;;;;24.00;14.40;;;9.90;99.90;;;;;;4894966;29;20556;-72
2023/01/13 11:56:30;;;;;;;24.55;13.10;;;9.80;99.90;;;;;;4878887;29;20040;-72
2023/01/13 11:59:17;;;;;;;20.02;12.70;;;9.90;99.90;;;;;;4887038;29;20133;-72
2023/01/13 12:01:58;;;;;;;25.58;14.98;;;10.00;99.90;;;;;;4885232;29;20481;-72
2023/01/13 12:04:50;;;;;;;26.60;16.33;;;10.00;99.90;;;;;;4878271;29;20127;-73
2023/01/13 12:07:34;;;;;;;24.38;13.93;;;10.00;99.90;;;;;;4878647;29;20040;-73
2023/01/13 12:10:31;;;;;;;20.70;11.70;;;10.00;99.90;;;;;;4892228;29;20048;-72
2023/01/13 12:13:06;;;;;;;29.80;17.95;;;9.80;99.90;;;;;;4872960;29;20029;-72
2023/01/13 12:15:50;;;;;;;22.50;14.02;;;9.90;99.90;;;;;;4878871;29;20025;-71
2023/01/13 12:18:21;;;;;;;25.50;14.80;;;9.90;99.90;;;;;;4878800;29;20030;-72
2023/01/13 12:21:06;;;;;;;26.90;13.52;;;10.00;99.90;;;;;;4891502;29;20111;-72
2023/01/13 12:23:38;;;;;;;20.52;11.65;;;10.00;99.90;;;;;;4896226;29;20104;-72
2023/01/13 12:26:08;;;;;;;22.35;13.35;;;9.80;99.90;;;;;;4899734;29;20037;-73
2023/01/13 12:28:43;;;;;;;30.23;18.65;;;9.60;99.90;;;;;;4901703;29;20108;-73
2023/01/13 12:31:09;;;;;;;28.17;16.90;;;9.80;99.90;;;;;;4903892;29;20052;-74
2023/01/13 12:34:05;;;;;;;24.80;14.85;;;9.90;99.90;;;;;;4909559;29;20476;-71
2023/01/13 12:36:49;;;;;;;26.85;14.05;;;9.90;99.90;;;;;;4902813;29;20036;-72
2023/01/13 12:39:40;;;;;;;29.10;18.83;;;9.90;99.90;;;;;;4908544;29;20051;-72
2023/01/13 12:45:11;;;;;;;27.42;18.63;;;9.90;99.90;;;;;;4898767;29;20037;-72
2023/01/13 12:47:37;;;;;;;33.05;17.67;;;10.00;99.90;;;;;;4900581;29;20035;-72
2023/01/13 12:50:26;;;;;;;25.77;15.07;;;9.90;99.90;;;;;;4897709;29;20040;-72
2023/01/13 12:52:59;;;;;;;25.70;15.40;;;9.90;99.90;;;;;;4890234;29;20033;-76
2023/01/13 12:55:27;;;;;;;27.90;16.50;;;9.90;99.90;;;;;;4897961;29;20036;-72
2023/01/13 12:57:55;;;;;;;26.38;16.15;;;9.90;99.90;;;;;;4898427;29;20032;-73
2023/01/13 13:00:21;;;;;;;28.42;18.35;;;9.80;99.90;;;;;;4903549;29;20044;-73
2023/01/13 13:03:10;;;;;;;23.73;16.08;;;9.90;99.90;;;;;;4904490;29;20017;-73
2023/01/13 13:05:55;;;;;;;27.30;17.50;;;9.90;99.90;;;;;;4859340;29;20056;-73
2023/01/13 13:08:21;;;;;;;25.17;16.83;;;9.90;99.90;;;;;;4858913;29;20144;-72
2023/01/13 13:14:09;;;;;;;26.55;15.20;;;9.90;99.90;;;;;;4821228;29;20118;-72
2023/01/13 13:16:45;;;;;;;36.53;16.52;;;10.00;99.90;;;;;;4821890;29;20432;-72
2023/01/13 13:19:16;;;;;;;33.97;18.10;;;9.90;99.90;;;;;;4820049;29;20073;-72
2023/01/13 13:22:13;;;;;;;30.63;18.83;;;10.00;99.90;;;;;;4813209;29;20099;-73
2023/01/13 13:24:56;;;;;;;27.50;17.92;;;9.90;99.90;;;;;;4822600;29;20046;-72
2023/01/13 13:27:34;;;;;;;25.90;16.30;;;9.90;99.90;;;;;;4809547;29;20443;-73
2023/01/13 13:30:08;;;;;;;29.33;15.98;;;10.00;99.90;;;;;;4819882;29;20046;-72
2023/01/13 13:32:52;;;;;;;29.00;18.77;;;10.00;99.90;;;;;;4819964;29;20038;-74
2023/01/13 13:35:36;;;;;;;30.30;18.95;;;10.00;99.90;;;;;;4822211;29;20199;-71
2023/01/13 13:46:47;;;;;;;31.45;20.23;;;9.70;99.90;;;;;;4813308;29;20057;-71